Time;durP1;ratioP1;P1;durP2;ratioP2;P2;SDS_P1;SDS_P2;PMS_P1;PMS_P2;Temp;Humidity;BMP_temperature;BMP_pressure;BME280_temperature;BME280_humidity;BME280_pressure;Samples;Min_cycle;Max_cycle;Signal;HPM_P1;HPM_P2
2022/04/20 00:00:31;;;;;;;3.07;2.60;;;;;;;7.22;59.48;100468.28;5086755;28;20834;-74
2022/04/20 00:02:59;;;;;;;5.60;2.73;;;;;;;7.19;58.94;100467.66;5087089;28;20479;-73
2022/04/20 00:05:26;;;;;;;4.63;2.70;;;;;;;7.14;59.15;100474.16;5086497;28;20511;-72
2022/04/20 00:07:53;;;;;;;4.30;3.53;;;;;;;7.07;59.32;100474.75;5087577;28;20439;-72
2022/04/20 00:10:19;;;;;;;3.90;2.37;;;;;;;6.99;59.61;100472.63;5087052;28;20486;-72
2022/04/20 00:12:46;;;;;;;3.80;2.40;;;;;;;6.98;59.79;100468.28;5088152;28;20432;-72
2022/04/20 00:15:13;;;;;;;2.80;2.40;;;;;;;6.98;59.83;100469.13;5086565;28;20475;-72
2022/04/20 00:17:39;;;;;;;2.83;2.13;;;;;;;6.98;60.04;100465.63;5087677;28;20482;-72
2022/04/20 00:20:09;;;;;;;3.33;2.83;;;;;;;6.93;60.49;100460.63;5086923;28;20452;-71
2022/04/20 00:22:36;;;;;;;3.73;2.47;;;;;;;6.87;61.15;100463.72;5087003;28;20795;-72
2022/04/20 00:25:03;;;;;;;4.83;2.77;;;;;;;6.94;60.67;100461.47;5087242;28;20838;-72
2022/04/20 00:27:33;;;;;;;4.00;2.33;;;;;;;6.93;60.46;100463.28;5079423;28;20478;-72
2022/04/20 00:29:59;;;;;;;5.50;3.03;;;;;;;6.91;60.27;100456.38;5086637;28;20501;-72
2022/04/20 00:32:26;;;;;;;5.07;2.57;;;;;;;6.87;60.36;100458.41;5087383;28;20479;-72
2022/04/20 00:34:53;;;;;;;6.53;2.80;;;;;;;6.88;60.59;100459.28;5087713;28;20455;-72
2022/04/20 00:37:21;;;;;;;3.40;2.37;;;;;;;6.83;60.78;100456.09;5086559;28;20472;-72
2022/04/20 00:39:47;;;;;;;4.37;2.57;;;;;;;6.82;60.72;100449.94;5087782;28;20551;-72
2022/04/20 00:42:14;;;;;;;3.63;2.60;;;;;;;6.74;60.94;100458.47;5086646;28;20518;-72
2022/04/20 00:44:41;;;;;;;2.60;2.00;;;;;;;6.78;60.79;100459.94;5086921;28;20479;-72
2022/04/20 00:47:08;;;;;;;5.23;2.80;;;;;;;6.79;60.99;100456.31;5086969;28;20466;-72
2022/04/20 00:49:36;;;;;;;3.37;2.20;;;;;;;6.84;60.30;100452.47;5086735;28;20455;-72
2022/04/20 00:52:04;;;;;;;4.13;2.70;;;;;;;6.84;60.16;100457.78;5086451;28;20900;-72
2022/04/20 00:54:32;;;;;;;3.27;2.53;;;;;;;6.80;60.56;100465.13;5085668;28;20432;-71
2022/04/20 00:56:58;;;;;;;3.23;2.60;;;;;;;6.74;60.60;100460.28;5079419;28;20514;-73
2022/04/20 00:59:27;;;;;;;3.77;2.30;;;;;;;6.75;60.28;100457.53;5086689;28;20527;-72
2022/04/20 01:01:54;;;;;;;2.53;2.30;;;;;;;6.69;60.96;100459.75;5087228;28;21013;-72
2022/04/20 01:04:21;;;;;;;3.00;2.30;;;;;;;6.64;61.15;100454.78;5086410;28;20506;-72
2022/04/20 01:06:49;;;;;;;4.77;3.00;;;;;;;6.65;60.73;100458.25;5085567;28;20472;-71
2022/04/20 01:09:15;;;;;;;3.70;2.43;;;;;;;6.65;60.02;100447.63;5067479;28;20432;-72
2022/04/20 01:11:44;;;;;;;3.77;2.50;;;;;;;6.69;60.08;100455.28;5063737;28;20478;-72
2022/04/20 01:14:11;;;;;;;3.63;2.60;;;;;;;6.66;60.47;100455.50;5083019;28;20489;-73
2022/04/20 01:16:37;;;;;;;4.73;2.37;;;;;;;6.61;60.62;100452.31;5083297;28;20471;-73
2022/04/20 01:19:04;;;;;;;4.07;2.60;;;;;;;6.52;61.39;100448.53;5082111;28;20886;-72
2022/04/20 01:21:32;;;;;;;5.20;2.70;;;;;;;6.51;61.98;100456.59;5071602;28;20476;-71
2022/04/20 01:23:59;;;;;;;3.30;2.30;;;;;;;6.51;62.10;100454.81;5082294;28;20476;-71
2022/04/20 01:26:26;;;;;;;3.07;2.40;;;;;;;6.51;62.05;100459.25;5073644;28;20476;-71
2022/04/20 01:28:54;;;;;;;3.50;2.60;;;;;;;6.35;62.22;100460.38;5063612;28;20540;-71
2022/04/20 01:31:21;;;;;;;3.30;2.70;;;;;;;6.27;62.77;100457.41;5063775;28;20655;-71
2022/04/20 01:33:48;;;;;;;6.00;2.93;;;;;;;6.23;62.82;100450.59;5063115;28;20488;-71
2022/04/20 01:36:14;;;;;;;5.20;3.07;;;;;;;6.16;62.87;100446.66;5062867;28;20483;-71
2022/04/20 01:38:42;;;;;;;3.73;2.60;;;;;;;6.19;62.96;100449.13;5063573;28;20453;-71
2022/04/20 01:41:09;;;;;;;3.77;2.80;;;;;;;6.17;62.68;100451.03;5065755;28;20476;-71
2022/04/20 01:43:35;;;;;;;4.17;2.83;;;;;;;6.18;62.65;100456.25;5054938;28;20866;-71
2022/04/20 01:46:02;;;;;;;3.77;2.80;;;;;;;6.28;62.54;100452.94;5062638;28;20528;-71
2022/04/20 01:48:29;;;;;;;3.73;2.63;;;;;;;6.30;62.16;100453.66;5063132;28;20512;-72
2022/04/20 01:53:40;;;;;;;3.57;3.00;;;;;;;6.29;62.44;100457.28;5083893;28;20419;-71
2022/04/20 01:56:08;;;;;;;4.57;3.30;;;;;;;6.30;62.38;100458.97;5082731;28;20464;-72
2022/04/20 01:58:35;;;;;;;3.80;3.40;;;;;;;6.34;62.04;100457.81;5082609;28;20455;-71
2022/04/20 02:02:34;;;;;;;6.30;3.40;;;;;;;6.31;61.98;100458.03;5082665;28;21010;-71
2022/04/20 02:03:47;;;;;;;3.60;2.70;;;;;;;6.26;62.12;100462.81;5081623;28;20507;-71
2022/04/20 02:06:14;;;;;;;3.33;3.03;;;;;;;6.22;62.28;100451.56;5081789;28;20498;-72
2022/04/20 02:08:41;;;;;;;6.03;2.90;;;;;;;6.16;62.59;100455.50;5082768;28;20210;-71
2022/04/20 02:11:09;;;;;;;4.97;2.77;;;;;;;6.09;63.28;100458.66;5082167;28;21002;-73
2022/04/20 02:13:36;;;;;;;4.17;3.23;;;;;;;6.05;63.51;100449.22;5082743;28;20467;-74
2022/04/20 02:16:02;;;;;;;7.83;3.60;;;;;;;6.07;63.41;100463.25;5082136;28;20486;-74
2022/04/20 02:18:29;;;;;;;6.13;3.87;;;;;;;6.02;63.36;100453.81;5082428;28;20498;-71
2022/04/20 02:20:56;;;;;;;5.93;3.57;;;;;;;5.99;63.78;100450.50;5080934;28;20463;-71
2022/04/20 02:23:22;;;;;;;4.57;3.27;;;;;;;5.97;63.94;100458.59;5081772;28;20571;-72
2022/04/20 02:25:49;;;;;;;4.47;3.37;;;;;;;5.98;64.10;100462.06;5081952;28;20917;-72
2022/04/20 02:28:18;;;;;;;5.17;3.37;;;;;;;5.94;64.14;100455.25;5081640;28;20448;-72
2022/04/20 02:30:45;;;;;;;8.20;3.60;;;;;;;5.91;64.03;100458.13;5082096;28;20492;-72
2022/04/20 02:33:12;;;;;;;3.47;2.80;;;;;;;5.93;63.48;100457.03;5082266;28;20765;-72
2022/04/20 02:35:40;;;;;;;5.00;3.50;;;;;;;5.88;63.44;100463.63;5081315;28;20480;-72
2022/04/20 02:38:09;;;;;;;4.20;2.87;;;;;;;5.82;63.64;100465.75;5082181;28;20491;-71
2022/04/20 02:40:36;;;;;;;4.70;3.33;;;;;;;5.76;63.85;100463.50;5081367;28;20891;-72
2022/04/20 02:43:02;;;;;;;4.23;3.60;;;;;;;5.71;64.01;100465.66;5082201;28;20514;-72
2022/04/20 02:45:31;;;;;;;5.53;3.60;;;;;;;5.64;64.43;100470.50;5081313;28;20494;-70
2022/04/20 02:47:57;;;;;;;7.10;3.37;;;;;;;5.59;64.62;100467.31;5081200;28;20512;-71
2022/04/20 02:50:24;;;;;;;6.03;3.37;;;;;;;5.57;64.64;100471.00;5080767;28;20464;-71
2022/04/20 02:52:51;;;;;;;4.60;3.30;;;;;;;5.57;64.59;100474.53;5082797;28;20512;-70
2022/04/20 02:55:17;;;;;;;3.37;2.97;;;;;;;5.59;64.68;100480.56;5081177;28;20452;-71
2022/04/20 02:57:44;;;;;;;4.43;3.10;;;;;;;5.62;64.80;100467.13;5081232;28;20962;-71
2022/04/20 03:00:12;;;;;;;5.00;3.70;;;;;;;5.56;64.75;100469.31;5081095;28;20451;-71
2022/04/20 03:02:46;;;;;;;4.07;3.37;;;;;;;5.52;64.67;100468.69;5082134;28;20943;-70
2022/04/20 03:05:13;;;;;;;3.57;2.93;;;;;;;5.52;65.01;100468.69;5080340;28;20488;-71
2022/04/20 03:07:39;;;;;;;4.17;3.17;;;;;;;5.51;65.05;100472.28;5081328;28;20708;-72
2022/04/20 03:10:07;;;;;;;4.13;3.23;;;;;;;5.54;65.12;100468.56;5081798;28;20452;-71
2022/04/20 03:12:34;;;;;;;4.93;3.27;;;;;;;5.44;65.18;100466.53;5081233;28;20482;-71
2022/04/20 03:15:00;;;;;;;3.97;3.03;;;;;;;5.43;65.34;100463.97;5082007;28;20455;-72
2022/04/20 03:17:27;;;;;;;3.70;3.30;;;;;;;5.40;65.28;100467.69;5080585;28;20475;-72
2022/04/20 03:19:55;;;;;;;4.73;3.50;;;;;;;5.38;65.42;100466.09;5080371;28;20475;-72
2022/04/20 03:22:22;;;;;;;4.13;3.23;;;;;;;5.37;65.61;100464.41;5080603;28;20483;-72
2022/04/20 03:24:48;;;;;;;3.90;3.30;;;;;;;5.31;65.64;100470.09;5069436;28;20503;-72
2022/04/20 03:27:15;;;;;;;9.30;3.80;;;;;;;5.25;65.98;100463.41;5080134;28;20566;-72
2022/04/20 03:29:42;;;;;;;5.00;3.30;;;;;;;5.20;66.02;100463.69;5081677;28;20439;-72
2022/04/20 03:32:10;;;;;;;4.60;3.27;;;;;;;5.15;66.40;100467.59;5081354;28;20502;-72
2022/04/20 03:34:37;;;;;;;3.53;3.10;;;;;;;5.16;66.55;100462.22;5079822;28;20457;-71
2022/04/20 03:37:06;;;;;;;4.10;3.50;;;;;;;5.17;66.27;100461.25;5080623;28;20509;-71
2022/04/20 03:39:33;;;;;;;4.20;3.60;;;;;;;5.15;66.45;100464.97;5080236;28;20487;-72
2022/04/20 03:41:59;;;;;;;4.97;3.37;;;;;;;5.16;66.59;100466.66;5080545;28;20479;-73
2022/04/20 03:44:26;;;;;;;4.07;3.30;;;;;;;5.16;66.44;100458.72;5080986;28;20476;-72
2022/04/20 03:46:53;;;;;;;4.23;3.00;;;;;;;5.17;66.48;100463.88;5080543;28;20498;-72
2022/04/20 03:49:20;;;;;;;4.77;3.40;;;;;;;5.14;66.41;100468.53;5079783;28;20448;-72
2022/04/20 03:51:46;;;;;;;6.10;3.70;;;;;;;5.07;66.54;100468.97;5080730;28;20512;-72
2022/04/20 03:54:15;;;;;;;3.57;2.93;;;;;;;5.04;66.73;100470.97;5080530;28;20440;-72
2022/04/20 03:59:26;;;;;;;8.80;4.53;;;;;;;5.00;67.39;100469.44;5101704;28;20430;-72
2022/04/20 04:01:53;;;;;;;6.67;3.90;;;;;;;5.00;67.11;100474.75;5100781;28;20478;-71
2022/04/20 04:04:20;;;;;;;6.03;3.77;;;;;;;4.96;67.16;100475.91;5088911;28;20507;-72
2022/04/20 04:06:47;;;;;;;6.73;3.90;;;;;;;4.88;67.24;100476.41;5080485;28;20472;-72
2022/04/20 04:09:15;;;;;;;7.63;3.60;;;;;;;4.92;67.38;100480.56;5081020;28;20490;-72
2022/04/20 04:11:41;;;;;;;7.27;4.30;;;;;;;4.84;67.25;100481.06;5079601;28;20471;-71
2022/04/20 04:14:08;;;;;;;4.73;3.47;;;;;;;4.81;67.68;100483.91;5081364;28;20467;-72
2022/04/20 04:16:36;;;;;;;8.10;3.77;;;;;;;4.83;67.71;100475.84;5080352;28;20471;-72
2022/04/20 04:19:04;;;;;;;5.57;3.60;;;;;;;4.78;67.94;100475.28;5079151;28;20464;-71
2022/04/20 04:21:32;;;;;;;5.67;3.70;;;;;;;4.74;67.88;100472.00;5080538;28;20468;-72
2022/04/20 04:23:59;;;;;;;5.60;3.80;;;;;;;4.69;67.98;100476.72;5080415;28;20471;-72
2022/04/20 04:26:28;;;;;;;4.90;3.53;;;;;;;4.92;67.03;100480.56;5085993;28;20475;-73
2022/04/20 04:28:54;;;;;;;6.50;3.73;;;;;;;4.92;67.08;100485.00;5088010;28;20462;-73
2022/04/20 04:31:21;;;;;;;6.23;3.60;;;;;;;4.97;66.85;100489.06;5099578;28;20471;-73
2022/04/20 04:33:47;;;;;;;4.00;3.60;;;;;;;5.06;66.26;100491.09;5095741;28;20491;-73
2022/04/20 04:36:14;;;;;;;4.53;3.57;;;;;;;5.13;66.12;100488.06;5079886;28;20585;-73
2022/04/20 04:38:41;;;;;;;3.53;3.20;;;;;;;5.18;65.73;100485.97;5080552;28;20487;-72
2022/04/20 04:41:07;;;;;;;5.57;3.60;;;;;;;5.17;65.68;100493.03;5079738;28;20472;-73
2022/04/20 04:43:35;;;;;;;4.57;3.60;;;;;;;5.22;65.58;100493.59;5080132;28;20474;-73
2022/04/20 04:48:48;;;;;;;4.60;2.97;;;;;;;5.45;64.88;100502.72;5083377;28;20493;-73
2022/04/20 04:51:15;;;;;;;4.60;3.07;;;;;;;5.60;64.46;100497.34;5082565;28;20515;-74
2022/04/20 04:53:42;;;;;;;6.33;4.37;;;;;;;5.72;64.41;100498.31;5084886;28;20467;-74
2022/04/20 04:56:09;;;;;;;5.73;3.87;;;;;;;6.09;64.08;100504.63;5083110;28;20487;-72
2022/04/20 04:58:37;;;;;;;9.50;4.37;;;;;;;6.90;61.92;100502.53;5076311;28;20480;-73
2022/04/20 05:01:04;;;;;;;4.60;3.23;;;;;;;7.99;58.37;100497.09;5084314;28;20471;-71
2022/04/20 05:03:31;;;;;;;7.47;4.30;;;;;;;9.17;54.78;100499.41;5082187;28;20458;-71
2022/04/20 05:05:58;;;;;;;4.93;3.77;;;;;;;10.06;51.23;100497.28;5083640;28;20526;-72
2022/04/20 05:08:24;;;;;;;8.40;3.70;;;;;;;10.97;48.27;100499.25;5084483;28;20460;-72
2022/04/20 05:10:52;;;;;;;6.10;3.10;;;;;;;11.76;45.86;100501.84;5082841;28;20472;-72
2022/04/20 05:13:18;;;;;;;6.70;3.70;;;;;;;12.21;44.67;100498.56;5088620;28;20443;-73
2022/04/20 05:15:46;;;;;;;5.50;3.80;;;;;;;12.70;43.02;100501.06;5092800;28;20471;-72
2022/04/20 05:18:13;;;;;;;4.23;3.70;;;;;;;12.98;42.10;100506.44;5082823;28;20451;-72
2022/04/20 05:20:40;;;;;;;4.20;3.73;;;;;;;12.66;42.79;100497.00;5090979;28;20549;-73
2022/04/20 05:23:07;;;;;;;4.13;3.40;;;;;;;12.42;43.30;100493.00;5096440;28;20460;-73
2022/04/20 05:25:34;;;;;;;4.40;3.17;;;;;;;13.35;41.46;100501.00;5087790;28;20890;-71
2022/04/20 05:28:01;;;;;;;4.93;3.37;;;;;;;13.85;39.96;100506.81;5083079;28;20452;-77
2022/04/20 05:30:27;;;;;;;3.53;2.83;;;;;;;14.16;39.47;100509.91;5084005;28;20497;-76
2022/04/20 05:32:55;;;;;;;4.90;2.90;;;;;;;14.64;37.60;100519.31;5083377;28;20428;-78
2022/04/20 05:35:22;;;;;;;3.80;3.40;;;;;;;14.90;37.00;100515.72;5081993;28;20448;-78
2022/04/20 05:43:17;;;;;;;3.40;2.60;;;;;;;15.14;35.61;100517.66;5102940;28;20462;-75
2022/04/20 05:45:44;;;;;;;6.67;3.63;;;;;;;15.27;35.67;100519.88;5097741;28;20483;-76
2022/04/20 05:48:14;;;;;;;4.17;2.87;;;;;;;15.84;35.11;100527.22;5081872;28;20490;-78
2022/04/20 05:50:41;;;;;;;6.00;2.73;;;;;;;16.03;34.55;100525.22;5081794;28;20507;-77
2022/04/20 05:53:07;;;;;;;3.80;3.17;;;;;;;16.15;33.62;100522.00;5082403;28;20548;-74
2022/04/20 05:55:34;;;;;;;4.90;2.77;;;;;;;14.66;36.43;100521.84;5080606;28;20543;-76
2022/04/20 05:58:01;;;;;;;4.53;3.03;;;;;;;16.34;33.84;100511.84;5091697;28;20459;-74
2022/04/20 06:00:28;;;;;;;4.80;2.50;;;;;;;16.26;33.76;100528.88;5089613;28;20547;-74
2022/04/20 06:02:55;;;;;;;4.60;2.50;;;;;;;16.98;32.10;100517.25;5078065;28;20480;-75
2022/04/20 06:05:24;;;;;;;4.40;2.60;;;;;;;16.31;33.37;100520.28;5081323;28;20495;-79
2022/04/20 06:07:50;;;;;;;5.90;3.17;;;;;;;13.75;37.73;100523.03;5082700;28;20466;-75
2022/04/20 06:10:17;;;;;;;4.07;2.67;;;;;;;14.92;35.83;100518.25;5085077;28;20515;-75
2022/04/20 06:12:44;;;;;;;5.03;2.73;;;;;;;16.62;33.08;100514.16;5103639;28;20459;-77
2022/04/20 06:15:10;;;;;;;3.43;2.87;;;;;;;17.41;31.60;100523.09;5102255;28;20469;-76
2022/04/20 06:17:37;;;;;;;4.50;3.00;;;;;;;15.30;34.70;100514.16;5100393;28;20516;-72
2022/04/20 06:20:05;;;;;;;3.03;2.73;;;;;;;15.09;34.68;100520.00;5081940;28;20448;-74
2022/04/20 06:22:33;;;;;;;5.97;4.37;;;;;;;15.12;35.51;100518.81;5086179;28;20506;-76
2022/04/20 06:25:00;;;;;;;6.67;3.00;;;;;;;13.98;37.55;100522.56;5083197;28;20533;-76
2022/04/20 06:27:29;;;;;;;3.33;2.77;;;;;;;17.05;32.49;100520.91;5090970;28;20497;-76
2022/04/20 06:29:56;;;;;;;3.07;2.37;;;;;;;16.30;34.17;100532.06;5077658;28;20905;-74
2022/04/20 06:32:24;;;;;;;4.33;2.70;;;;;;;17.25;31.70;100526.72;5081609;28;20479;-75
2022/04/20 06:34:51;;;;;;;4.60;2.80;;;;;;;16.50;33.02;100527.16;5102010;28;20454;-74
2022/04/20 06:37:19;;;;;;;3.20;2.50;;;;;;;16.89;33.34;100529.06;5085731;28;20534;-75
2022/04/20 06:39:48;;;;;;;5.27;2.53;;;;;;;16.99;32.90;100524.31;5076334;28;20560;-76
2022/04/20 06:44:50;;;;;;;6.70;2.50;;;;;;;19.63;28.47;100522.59;5220845;23;20496;-76
2022/04/20 06:47:16;;;;;;;4.67;2.70;;;;;;;17.04;32.52;100519.22;4980888;28;21146;-75
2022/04/20 06:49:43;;;;;;;5.77;2.90;;;;;;;18.11;31.03;100529.34;4985736;28;20486;-76
2022/04/20 07:00:25;;;;;;;3.87;2.93;;;;;;;18.78;29.77;100533.03;4963625;28;20456;-76
2022/04/20 07:02:59;;;;;;;4.10;2.80;;;;;;;18.89;29.40;100534.47;4983456;28;20457;-75
2022/04/20 07:05:25;;;;;;;5.87;3.00;;;;;;;19.34;28.29;100527.09;4983192;28;20499;-75
2022/04/20 07:07:52;;;;;;;5.00;2.80;;;;;;;19.66;27.76;100524.94;4986299;28;20475;-75
2022/04/20 07:10:20;;;;;;;4.73;3.40;;;;;;;19.89;27.30;100522.91;4992942;28;20512;-75
2022/04/20 07:12:47;;;;;;;4.57;2.40;;;;;;;19.96;27.22;100527.53;4990247;28;20488;-76
2022/04/20 07:15:14;;;;;;;4.93;3.20;;;;;;;19.45;29.11;100523.03;4994553;28;20447;-77
2022/04/20 07:17:40;;;;;;;3.83;2.60;;;;;;;20.44;27.85;100524.97;4987567;28;20467;-76
2022/04/20 07:20:10;;;;;;;2.60;2.33;;;;;;;19.79;27.85;100522.38;4983873;28;20530;-74
2022/04/20 07:22:37;;;;;;;3.10;2.27;;;;;;;19.65;27.74;100515.97;4984189;28;20456;-75
2022/04/20 07:25:05;;;;;;;6.20;2.90;;;;;;;18.53;29.52;100522.47;4988597;28;20520;-73
2022/04/20 07:27:33;;;;;;;4.73;2.93;;;;;;;19.35;28.80;100513.34;4990514;28;20530;-75
2022/04/20 07:30:00;;;;;;;5.23;3.17;;;;;;;18.67;29.33;100509.97;4978767;28;20559;-75
2022/04/20 07:32:26;;;;;;;4.90;3.40;;;;;;;17.96;31.28;100507.66;4976665;28;20897;-74
2022/04/20 07:34:53;;;;;;;5.50;3.20;;;;;;;19.19;29.05;100508.16;4976364;28;20563;-75
2022/04/20 07:37:20;;;;;;;4.43;3.50;;;;;;;18.95;28.94;100507.44;4986431;28;20487;-74
2022/04/20 07:39:47;;;;;;;4.43;3.10;;;;;;;18.83;29.43;100500.00;4993959;28;20492;-73
2022/04/20 07:42:14;;;;;;;4.90;3.10;;;;;;;19.14;29.60;100507.88;4979340;28;20496;-74
2022/04/20 07:44:42;;;;;;;3.43;3.00;;;;;;;19.94;27.76;100506.84;4981420;28;21162;-74
2022/04/20 07:47:09;;;;;;;3.27;2.97;;;;;;;19.47;28.46;100508.25;4979750;28;21007;-73
2022/04/20 07:52:20;;;;;;;5.87;3.23;;;;;;;20.49;27.05;100508.94;4975594;28;20479;-74
2022/04/20 07:54:46;;;;;;;4.73;3.03;;;;;;;20.67;27.01;100509.25;4995945;28;20522;-74
2022/04/20 07:57:15;;;;;;;4.47;3.20;;;;;;;23.38;23.98;100509.72;4988944;28;20508;-74
2022/04/20 07:59:44;;;;;;;4.73;2.90;;;;;;;22.82;24.98;100510.38;4980292;28;20453;-75
2022/04/20 08:02:10;;;;;;;3.90;2.40;;;;;;;19.94;28.08;100514.97;4977543;28;21021;-74
2022/04/20 08:04:37;;;;;;;4.13;3.50;;;;;;;20.17;27.34;100515.78;4961724;29;20472;-74
2022/04/20 08:07:05;;;;;;;3.33;3.03;;;;;;;21.09;26.90;100513.84;4961129;28;21128;-74
2022/04/20 08:09:32;;;;;;;2.93;2.63;;;;;;;21.79;26.60;100511.75;4965718;28;20480;-75
2022/04/20 08:11:59;;;;;;;3.87;3.00;;;;;;;21.59;25.81;100509.00;4979752;28;20476;-74
2022/04/20 08:14:25;;;;;;;4.00;2.93;;;;;;;20.88;27.35;100507.47;4979842;28;20467;-74
2022/04/20 08:16:53;;;;;;;7.83;3.60;;;;;;;21.12;27.38;100505.28;4979921;28;20479;-75
2022/04/20 08:19:21;;;;;;;3.93;2.87;;;;;;;20.33;28.64;100515.50;4966406;28;20487;-78
2022/04/20 08:21:47;;;;;;;5.23;3.40;;;;;;;19.61;28.76;100522.78;4984466;28;21003;-74
2022/04/20 08:24:14;;;;;;;4.93;3.63;;;;;;;17.98;32.14;100518.28;4985558;28;20533;-74
2022/04/20 08:26:41;;;;;;;3.80;3.30;;;;;;;17.63;32.71;100520.56;4983273;28;20487;-74
2022/04/20 08:29:10;;;;;;;6.90;4.20;;;;;;;18.06;32.39;100518.22;4985025;28;20496;-74
2022/04/20 08:31:36;;;;;;;6.40;3.83;;;;;;;17.29;33.64;100513.69;4984796;28;20472;-89
2022/04/20 08:34:04;;;;;;;10.53;4.27;;;;;;;19.86;30.00;100523.28;4984574;28;20782;-75
2022/04/20 08:36:31;;;;;;;4.00;3.23;;;;;;;19.87;29.83;100529.53;4970578;28;20505;-74
2022/04/20 08:38:58;;;;;;;5.87;3.53;;;;;;;20.67;28.64;100506.53;4973293;28;21039;-73
2022/04/20 08:41:24;;;;;;;7.23;3.80;;;;;;;21.24;26.84;100509.09;4989872;28;20590;-73
2022/04/20 08:43:52;;;;;;;5.43;3.30;;;;;;;21.61;27.58;100505.03;4983882;28;20507;-73
2022/04/20 08:46:19;;;;;;;5.93;3.50;;;;;;;21.22;27.26;100511.19;4983506;28;20488;-74
2022/04/20 08:48:45;;;;;;;4.90;3.20;;;;;;;20.13;28.45;100510.75;4984500;28;20490;-73
2022/04/20 08:51:14;;;;;;;4.97;3.57;;;;;;;20.64;28.62;100496.09;4983932;28;20517;-75
2022/04/20 08:53:40;;;;;;;3.87;2.83;;;;;;;21.65;27.32;100500.00;4983993;28;20441;-74
2022/04/20 08:58:53;;;;;;;3.70;2.93;;;;;;;20.16;29.21;100498.69;4983851;28;20795;-73
2022/04/20 09:01:19;;;;;;;3.50;3.13;;;;;;;20.33;28.61;100491.06;4983761;28;20480;-73
2022/04/20 09:03:47;;;;;;;4.93;3.47;;;;;;;21.23;28.18;100480.22;4984539;28;20444;-74
2022/04/20 09:06:16;;;;;;;5.60;3.60;;;;;;;20.13;29.23;100499.88;4981250;28;20503;-74
2022/04/20 09:08:43;;;;;;;3.20;2.90;;;;;;;20.22;28.16;100499.75;4969742;28;20965;-73
2022/04/20 09:11:09;;;;;;;8.07;3.50;;;;;;;20.83;27.30;100496.38;4983867;28;20628;-73
2022/04/20 09:13:39;;;;;;;6.10;3.33;;;;;;;20.04;29.65;100497.53;4982816;28;20453;-74
2022/04/20 09:16:06;;;;;;;5.53;3.00;;;;;;;20.65;28.56;100502.34;4983715;28;20514;-74
2022/04/20 09:18:33;;;;;;;3.13;2.83;;;;;;;19.21;30.61;100505.25;4983683;28;20467;-74
2022/04/20 09:21:06;;;;;;;3.07;2.70;;;;;;;19.40;29.95;100506.50;4981492;28;20482;-75
2022/04/20 09:23:35;;;;;;;4.40;3.47;;;;;;;19.77;29.98;100505.44;4984207;28;20452;-74
2022/04/20 09:26:09;;;;;;;7.03;3.30;;;;;;;20.61;28.99;100490.19;4981810;28;20946;-74
2022/04/20 09:28:36;;;;;;;4.20;3.20;;;;;;;21.20;26.99;100500.50;4981960;28;20457;-74
2022/04/20 09:31:03;;;;;;;3.50;2.90;;;;;;;20.42;27.90;100502.63;4982667;28;20503;-74
2022/04/20 09:33:44;;;;;;;3.47;3.13;;;;;;;19.54;29.42;100486.63;4982495;28;20468;-75
2022/04/20 09:36:10;;;;;;;9.07;3.10;;;;;;;21.26;27.34;100496.13;4981190;28;20948;-74
2022/04/20 09:38:41;;;;;;;4.90;3.17;;;;;;;19.06;29.99;100492.59;4983029;28;20480;-87
2022/04/20 09:41:09;;;;;;;4.77;3.40;;;;;;;19.76;29.16;100495.63;4981222;28;20779;-87
2022/04/20 09:43:35;;;;;;;5.60;3.13;;;;;;;20.75;27.41;100491.97;4983262;28;20504;-74
2022/04/20 09:46:04;;;;;;;3.57;3.10;;;;;;;21.02;27.87;100490.22;4983082;28;20484;-73
2022/04/20 09:51:20;;;;;;;3.53;2.50;;;;;;;19.27;29.36;100497.22;4983421;28;20499;-75
2022/04/20 09:53:50;;;;;;;2.77;2.00;;;;;;;19.57;28.78;100488.97;4983369;28;20453;-75
2022/04/20 09:56:21;;;;;;;4.37;2.90;;;;;;;21.11;26.55;100482.72;4981456;28;20500;-74
2022/04/20 09:58:57;;;;;;;4.53;2.87;;;;;;;21.75;26.14;100484.13;4981000;28;20449;-74
2022/04/20 10:01:30;;;;;;;5.13;2.93;;;;;;;18.84;29.20;100485.44;4980022;28;20499;-74
2022/04/20 10:03:58;;;;;;;5.13;2.83;;;;;;;18.88;29.52;100484.03;4986832;28;20436;-74
2022/04/20 10:06:25;;;;;;;6.10;3.13;;;;;;;19.94;28.01;100489.72;4999245;28;20511;-75
2022/04/20 10:08:53;;;;;;;2.93;2.43;;;;;;;21.11;26.27;100476.41;4982900;28;20461;-74
2022/04/20 10:11:22;;;;;;;3.77;2.30;;;;;;;20.20;27.19;100474.69;4981410;28;20480;-74
2022/04/20 10:16:05;;;;;;;3.50;2.17;;;;;;;20.79;26.33;100474.19;4982338;28;20548;-74
2022/04/20 10:16:38;;;;;;;2.63;2.43;;;;;;;20.35;27.61;100464.56;4982886;28;20498;-74
2022/04/20 10:19:08;;;;;;;5.50;3.10;;;;;;;20.77;27.47;100462.69;4982562;28;20491;-75
2022/04/20 10:21:38;;;;;;;3.50;2.57;;;;;;;20.27;27.51;100462.81;4980057;28;20801;-74
2022/04/20 10:24:08;;;;;;;3.60;3.03;;;;;;;20.30;26.96;100462.44;4983926;28;20437;-74
2022/04/20 10:26:35;;;;;;;3.93;2.57;;;;;;;20.59;26.04;100451.50;4980555;28;20484;-74
2022/04/20 10:29:07;;;;;;;3.87;2.37;;;;;;;19.36;29.16;100459.97;4980340;28;20452;-74
2022/04/20 10:31:39;;;;;;;6.47;2.87;;;;;;;20.14;28.42;100457.31;4989538;28;21082;-74
2022/04/20 10:34:07;;;;;;;3.33;2.83;;;;;;;20.02;27.81;100456.19;4981879;28;20452;-73
2022/04/20 10:36:35;;;;;;;8.63;2.40;;;;;;;19.35;28.29;100459.09;4981309;28;20513;-74
2022/04/20 10:39:25;;;;;;;2.77;2.33;;;;;;;19.77;27.42;100466.63;4982785;28;20578;-73
2022/04/20 10:42:18;;;;;;;5.70;2.43;;;;;;;19.79;26.87;100456.41;4972150;28;20502;-74
2022/04/20 10:45:06;;;;;;;3.03;2.20;;;;;;;20.34;27.62;100459.31;4980318;28;20503;-74
2022/04/20 10:47:36;;;;;;;2.27;2.07;;;;;;;20.27;25.61;100451.97;4966950;28;20516;-74
2022/04/20 10:50:14;;;;;;;6.63;2.30;;;;;;;20.71;24.98;100449.94;4992056;28;20459;-73
2022/04/20 10:52:42;;;;;;;2.40;1.93;;;;;;;19.32;26.56;100442.41;4988467;28;20545;-73
2022/04/20 10:55:11;;;;;;;3.93;2.40;;;;;;;18.67;27.94;100438.72;4981120;28;20464;-73
2022/04/20 10:57:39;;;;;;;2.63;2.30;;;;;;;19.47;27.17;100437.75;4981652;28;20453;-73
2022/04/20 11:00:36;;;;;;;2.60;2.10;;;;;;;19.45;26.90;100430.84;4981019;28;21086;-73
2022/04/20 11:03:04;;;;;;;5.03;3.10;;;;;;;17.75;28.86;100416.34;4967387;28;20479;-78
2022/04/20 11:05:31;;;;;;;3.10;2.57;;;;;;;19.72;27.19;100415.63;4971462;28;20551;-79
2022/04/20 11:08:08;;;;;;;2.97;2.53;;;;;;;19.78;26.52;100416.78;4982863;28;20456;-79
2022/04/20 11:10:41;;;;;;;3.30;1.90;;;;;;;20.51;24.99;100420.75;4980760;28;20476;-79
2022/04/20 11:19:08;;;;;;;5.73;2.80;;;;;;;18.80;28.09;100433.44;4969065;28;20512;-78
2022/04/20 11:21:35;;;;;;;4.00;2.63;;;;;;;19.00;27.38;100415.59;4981022;28;20810;-80
2022/04/20 11:24:05;;;;;;;3.23;2.17;;;;;;;19.13;28.09;100420.34;4981674;28;20456;-79
2022/04/20 11:26:37;;;;;;;2.67;2.33;;;;;;;19.52;28.11;100415.47;4992972;28;20488;-80
2022/04/20 11:29:10;;;;;;;4.87;2.80;;;;;;;18.83;28.87;100413.31;4981732;28;20461;-81
2022/04/20 11:31:38;;;;;;;2.40;2.10;;;;;;;19.47;27.97;100415.22;4995641;28;20511;-79
2022/04/20 11:34:05;;;;;;;2.70;2.30;;;;;;;19.49;26.91;100408.56;5000998;28;20892;-80
2022/04/20 11:36:32;;;;;;;2.63;2.40;;;;;;;19.73;26.61;100417.31;5000857;28;20561;-81
2022/04/20 11:39:00;;;;;;;6.63;2.00;;;;;;;19.57;27.42;100410.31;5001879;28;20459;-80
2022/04/20 11:41:27;;;;;;;3.90;1.83;;;;;;;18.55;28.61;100392.34;4983437;28;20486;-81
2022/04/20 11:43:55;;;;;;;4.10;2.00;;;;;;;19.87;26.73;100394.69;4985589;28;20487;-81
2022/04/20 11:46:23;;;;;;;3.67;2.00;;;;;;;18.36;28.71;100389.16;4978007;28;20480;-82
2022/04/20 11:48:54;;;;;;;2.50;2.20;;;;;;;19.01;27.48;100394.78;4993905;28;20459;-80
2022/04/20 11:51:25;;;;;;;2.40;1.80;;;;;;;18.44;28.63;100386.38;5001196;28;20487;-81
2022/04/20 11:53:52;;;;;;;8.87;2.33;;;;;;;18.98;27.82;100392.44;4963391;28;20472;-78
2022/04/20 11:56:33;;;;;;;5.53;1.80;;;;;;;19.36;27.66;100379.47;4960335;28;21095;-78
2022/04/20 11:59:01;;;;;;;4.67;1.60;;;;;;;19.07;28.64;100383.16;4973232;28;20555;-77
2022/04/20 12:01:31;;;;;;;5.53;1.80;;;;;;;19.25;27.98;100388.13;4975978;28;20540;-75
2022/04/20 12:03:59;;;;;;;2.87;2.10;;;;;;;19.31;28.61;100373.78;4978313;28;21016;-74
2022/04/20 12:06:27;;;;;;;3.83;2.30;;;;;;;18.85;29.33;100376.03;4979083;28;20480;-76
2022/04/20 12:08:54;;;;;;;3.70;1.73;;;;;;;19.31;28.83;100375.66;4979850;28;20460;-79
2022/04/20 12:11:21;;;;;;;2.50;1.83;;;;;;;18.43;29.50;100367.59;4981060;28;20518;-74